createdAt,value
2023-04-20T00:03:34.382Z,8.9
2023-04-20T00:18:44.700Z,8.7
2023-04-20T00:33:54.508Z,8.5
2023-04-20T00:49:04.962Z,8.3
2023-04-20T01:04:14.501Z,8.3
2023-04-20T01:19:24.685Z,8.3
2023-04-20T01:34:34.438Z,8.2
2023-04-20T01:49:43.850Z,8
2023-04-20T02:04:53.419Z,7.9
2023-04-20T02:20:05.196Z,7.9
2023-04-20T02:35:14.620Z,7.8
2023-04-20T02:50:24.132Z,7.7
2023-04-20T03:05:33.543Z,7.7
2023-04-20T03:20:43.261Z,7.7
2023-04-20T03:35:53.142Z,7.7
2023-04-20T03:51:03.379Z,7.7
2023-04-20T04:06:12.774Z,7.7
2023-04-20T04:21:22.629Z,7.8
2023-04-20T04:36:31.909Z,7.8
2023-04-20T04:51:42.701Z,7.7
2023-04-20T05:06:52.678Z,7.7
2023-04-20T05:22:02.295Z,7.7
2023-04-20T05:37:12.038Z,7.7
2023-04-20T05:52:22.075Z,7.8
2023-04-20T06:07:31.760Z,7.9
2023-04-20T06:22:41.774Z,8
2023-04-20T06:37:52.183Z,8.3
2023-04-20T06:53:05.254Z,8.5
2023-04-20T07:08:17.314Z,8.5
2023-04-20T07:23:27.990Z,8.6
2023-04-20T07:38:38.082Z,8.6
2023-04-20T07:53:47.622Z,8.9
2023-04-20T08:08:58.178Z,9
2023-04-20T08:24:08.259Z,9.2
2023-04-20T08:39:18.462Z,9.5
2023-04-20T08:54:28.258Z,9.4
2023-04-20T09:09:38.653Z,9.6
2023-04-20T09:24:49.137Z,10
2023-04-20T09:39:59.068Z,10.2
2023-04-20T09:55:08.388Z,10.3
2023-04-20T10:10:18.493Z,10.6
2023-04-20T10:25:28.663Z,11.1
2023-04-20T10:40:38.997Z,11.4
2023-04-20T10:55:49.495Z,11.9
2023-04-20T11:10:59.786Z,11.8
2023-04-20T11:26:14.007Z,11.8
2023-04-20T11:41:23.993Z,12.5
2023-04-20T11:56:34.602Z,12.6
2023-04-20T12:11:44.646Z,13.1
2023-04-20T12:26:54.480Z,12.9
2023-04-20T12:42:04.895Z,13.6
2023-04-20T12:57:15.459Z,14.3
2023-04-20T13:12:25.536Z,14.1
2023-04-20T13:27:35.617Z,13.8
2023-04-20T13:42:46.156Z,14.4
2023-04-20T13:57:55.457Z,13.9
2023-04-20T14:13:05.068Z,13.3
2023-04-20T14:28:14.597Z,12.9
2023-04-20T14:43:23.987Z,12.4
2023-04-20T14:58:33.345Z,12
2023-04-20T15:13:42.776Z,11.8
2023-04-20T15:28:52.785Z,11.5
2023-04-20T15:44:03.184Z,11.2
2023-04-20T15:59:12.568Z,10.9
2023-04-20T16:14:22.086Z,10.7
2023-04-20T16:29:31.461Z,10.4
2023-04-20T16:44:41.784Z,10.5
2023-04-20T16:59:51.795Z,10.4
2023-04-20T17:15:05.100Z,10.5
2023-04-20T17:30:14.720Z,10.5
2023-04-20T17:45:24.008Z,10.6
2023-04-20T18:00:33.547Z,10.6
2023-04-20T18:15:43.721Z,10.6
2023-04-20T18:30:53.319Z,10.7
2023-04-20T18:46:05.729Z,10.8
2023-04-20T19:01:15.943Z,10.8
2023-04-20T19:16:26.376Z,10.8
2023-04-20T19:31:36.401Z,10.8
2023-04-20T19:46:46.498Z,10.8
2023-04-20T20:01:56.721Z,10.8
2023-04-20T20:17:07.455Z,10.7
2023-04-20T20:32:17.312Z,10.7
2023-04-20T20:47:26.956Z,10.7
2023-04-20T21:02:37.551Z,10.6
2023-04-20T21:17:48.300Z,10.5
2023-04-20T21:32:58.119Z,10.5
2023-04-20T21:48:08.149Z,10.4
2023-04-20T22:03:17.597Z,10.2
2023-04-20T22:18:28.428Z,10.1
2023-04-20T22:33:38.139Z,9.9
2023-04-20T22:48:48.566Z,9.9
2023-04-20T23:03:59.051Z,9.9
2023-04-20T23:19:09.639Z,9.8
2023-04-20T23:34:18.988Z,9.8
2023-04-20T23:49:30.440Z,9.7
